Time;durP1;ratioP1;P1;durP2;ratioP2;P2;SDS_P1;SDS_P2;PMS_P1;PMS_P2;Temp;Humidity;BMP_temperature;BMP_pressure;BME280_temperature;BME280_humidity;BME280_pressure;Samples;Min_cycle;Max_cycle;Signal;HPM_P1;HPM_P2
2022/08/25 00:01:13;;;;;;;;;;;25.00;68.70;;;;;;5072272;28;19940;-63
2022/08/25 00:03:40;;;;;;;;;;;24.90;68.60;;;;;;5072564;28;19912;-64
2022/08/25 00:06:05;;;;;;;;;;;24.80;68.60;;;;;;5073022;28;20327;-63
2022/08/25 00:08:33;;;;;;;;;;;24.80;68.40;;;;;;5072789;28;19934;-64
2022/08/25 00:11:02;;;;;;;;;;;24.70;69.00;;;;;;5072385;28;19912;-64
2022/08/25 00:13:28;;;;;;;;;;;24.70;69.40;;;;;;5072160;28;20026;-64
2022/08/25 00:15:53;;;;;;;;;;;24.60;69.60;;;;;;5054823;28;19999;-64
2022/08/25 00:18:19;;;;;;;;;;;24.60;68.70;;;;;;5072369;28;19991;-63
2022/08/25 00:20:45;;;;;;;;;;;24.60;68.90;;;;;;5054131;28;19923;-65
2022/08/25 00:23:10;;;;;;;;;;;24.60;68.80;;;;;;5071955;28;19915;-64
2022/08/25 00:25:36;;;;;;;;;;;24.60;69.30;;;;;;5072429;28;19912;-64
2022/08/25 00:28:02;;;;;;;;;;;24.50;70.70;;;;;;5071804;28;19931;-63
2022/08/25 00:30:27;;;;;;;;;;;24.50;68.30;;;;;;5072356;28;19909;-64
2022/08/25 00:32:53;;;;;;;;;;;24.50;68.10;;;;;;5072154;28;19991;-63
2022/08/25 00:35:18;;;;;;;;;;;24.50;68.90;;;;;;5072118;28;19948;-63
2022/08/25 00:37:44;;;;;;;;;;;24.50;68.50;;;;;;5071961;28;19912;-64
2022/08/25 00:40:10;;;;;;;;;;;24.40;69.50;;;;;;5071649;28;19963;-64
2022/08/25 00:42:36;;;;;;;;;;;24.40;71.10;;;;;;5053859;28;19908;-65
2022/08/25 00:45:03;;;;;;;;;;;24.40;71.10;;;;;;5071318;28;19915;-65
2022/08/25 00:47:30;;;;;;;;;;;24.30;69.70;;;;;;5071591;28;19912;-64
2022/08/25 00:49:57;;;;;;;;;;;24.30;70.70;;;;;;5071914;28;20031;-63
2022/08/25 00:52:43;;;;;;;;;;;24.30;69.70;;;;;;5071750;28;19917;-64
2022/08/25 00:55:20;;;;;;;;;;;24.30;69.30;;;;;;5071500;28;19954;-64
2022/08/25 00:57:50;;;;;;;;;;;24.30;69.40;;;;;;5071287;28;20293;-64
2022/08/25 01:00:22;;;;;;;;;;;24.30;70.10;;;;;;5070166;28;20007;-61
2022/08/25 01:02:47;;;;;;;;;;;24.30;69.80;;;;;;5071396;28;20403;-64
2022/08/25 01:05:13;;;;;;;;;;;24.30;70.00;;;;;;5071896;28;19987;-63
2022/08/25 01:07:40;;;;;;;;;;;24.30;70.30;;;;;;5071759;28;19912;-63
2022/08/25 01:10:06;;;;;;;;;;;24.20;70.00;;;;;;5070945;28;19951;-63
2022/08/25 01:12:32;;;;;;;;;;;24.10;69.40;;;;;;5053576;28;19915;-64
2022/08/25 01:14:58;;;;;;;;;;;24.20;69.60;;;;;;5071393;28;19955;-64
2022/08/25 01:17:26;;;;;;;;;;;24.20;69.30;;;;;;5071208;28;19912;-64
2022/08/25 01:19:53;;;;;;;;;;;24.20;69.70;;;;;;5071269;28;19916;-63
2022/08/25 01:22:19;;;;;;;;;;;24.20;70.10;;;;;;5071172;28;19947;-63
2022/08/25 01:24:56;;;;;;;;;;;24.10;70.30;;;;;;5071784;28;19909;-64
2022/08/25 01:27:21;;;;;;;;;;;24.10;70.30;;;;;;5070692;28;20365;-63
2022/08/25 01:29:48;;;;;;;;;;;24.10;70.00;;;;;;5071173;28;19920;-63
2022/08/25 01:32:13;;;;;;;;;;;24.10;70.40;;;;;;5071098;28;20442;-63
2022/08/25 01:34:40;;;;;;;;;;;24.10;71.40;;;;;;5071335;28;19909;-64
2022/08/25 01:37:07;;;;;;;;;;;24.00;71.20;;;;;;5071555;28;19943;-65
2022/08/25 01:39:32;;;;;;;;;;;24.00;72.10;;;;;;5070778;28;20280;-65
2022/08/25 01:41:58;;;;;;;;;;;24.00;71.10;;;;;;5070739;28;19931;-66
2022/08/25 01:44:24;;;;;;;;;;;24.00;71.40;;;;;;5071221;28;20359;-63
2022/08/25 01:46:50;;;;;;;;;;;23.90;71.80;;;;;;5071450;28;19933;-63
2022/08/25 01:49:16;;;;;;;;;;;23.90;72.80;;;;;;5071035;28;19908;-63
2022/08/25 01:51:45;;;;;;;;;;;23.90;72.10;;;;;;5070892;28;20370;-62
2022/08/25 01:54:10;;;;;;;;;;;23.80;72.60;;;;;;5070920;28;19995;-63
2022/08/25 01:56:37;;;;;;;;;;;23.80;71.30;;;;;;5070314;28;20003;-64
2022/08/25 01:59:03;;;;;;;;;;;23.80;73.30;;;;;;5071400;28;20026;-64
2022/08/25 02:01:28;;;;;;;;;;;23.80;71.50;;;;;;5070816;28;19916;-64
2022/08/25 02:03:55;;;;;;;;;;;23.80;72.80;;;;;;5070766;28;20427;-63
2022/08/25 02:06:26;;;;;;;;;;;23.70;72.50;;;;;;5070725;28;19932;-65
2022/08/25 02:08:53;;;;;;;;;;;23.70;72.70;;;;;;5071264;28;19909;-63
2022/08/25 02:11:19;;;;;;;;;;;23.70;72.60;;;;;;5070437;28;19951;-64
2022/08/25 02:13:44;;;;;;;;;;;23.60;72.00;;;;;;5071168;28;19943;-64
2022/08/25 02:16:13;;;;;;;;;;;23.70;72.70;;;;;;5070634;28;20295;-64
2022/08/25 02:18:39;;;;;;;;;;;23.60;71.90;;;;;;5071007;28;20572;-63
2022/08/25 02:21:04;;;;;;;;;;;23.60;73.70;;;;;;5071097;28;19917;-63
2022/08/25 02:23:30;;;;;;;;;;;23.60;72.70;;;;;;5073047;28;19909;-64
2022/08/25 02:25:56;;;;;;;;;;;23.60;74.40;;;;;;5073982;28;19916;-64
2022/08/25 02:28:21;;;;;;;;;;;23.50;73.90;;;;;;5074598;28;19908;-62
2022/08/25 02:30:47;;;;;;;;;;;23.50;73.70;;;;;;5056842;28;19912;-63
2022/08/25 02:33:12;;;;;;;;;;;23.40;73.90;;;;;;5074600;28;19916;-62
2022/08/25 02:35:38;;;;;;;;;;;23.40;73.80;;;;;;5074295;28;20017;-64
2022/08/25 02:38:04;;;;;;;;;;;23.30;73.90;;;;;;5056515;28;20013;-65
2022/08/25 02:40:30;;;;;;;;;;;23.30;73.80;;;;;;5074062;28;19946;-64
2022/08/25 02:42:56;;;;;;;;;;;23.30;73.90;;;;;;5074245;28;19909;-63
2022/08/25 02:45:21;;;;;;;;;;;23.20;74.90;;;;;;5073982;28;19909;-63
2022/08/25 02:47:47;;;;;;;;;;;23.20;75.00;;;;;;5074053;28;20487;-63
2022/08/25 02:50:12;;;;;;;;;;;23.20;76.10;;;;;;5074519;28;19908;-61
2022/08/25 02:52:39;;;;;;;;;;;23.20;74.80;;;;;;5073964;28;19939;-62
2022/08/25 02:55:07;;;;;;;;;;;23.10;74.40;;;;;;5073809;28;19954;-62
2022/08/25 02:57:33;;;;;;;;;;;23.10;74.50;;;;;;5073864;28;19908;-63
2022/08/25 02:59:59;;;;;;;;;;;23.10;74.40;;;;;;5074083;28;19915;-64
2022/08/25 03:02:25;;;;;;;;;;;23.10;74.60;;;;;;5074146;28;19958;-64
2022/08/25 03:04:51;;;;;;;;;;;23.00;74.70;;;;;;5073675;28;20584;-62
2022/08/25 03:07:17;;;;;;;;;;;23.00;75.70;;;;;;5073807;28;19939;-62
2022/08/25 03:09:43;;;;;;;;;;;23.00;75.50;;;;;;5073759;28;19967;-63
2022/08/25 03:12:09;;;;;;;;;;;22.90;75.10;;;;;;5073985;28;20384;-63
2022/08/25 03:14:35;;;;;;;;;;;22.90;77.40;;;;;;5073614;28;19948;-63
2022/08/25 03:17:00;;;;;;;;;;;22.80;75.50;;;;;;5055899;28;19939;-63
2022/08/25 03:19:26;;;;;;;;;;;22.80;75.50;;;;;;5073656;28;19909;-64
2022/08/25 03:21:55;;;;;;;;;;;22.80;75.40;;;;;;5073226;28;19917;-63
2022/08/25 03:24:20;;;;;;;;;;;22.80;74.50;;;;;;5073447;28;19909;-64
2022/08/25 03:26:55;;;;;;;;;;;22.80;75.00;;;;;;5073495;28;19965;-64
2022/08/25 03:29:22;;;;;;;;;;;22.80;74.70;;;;;;5073442;28;19908;-64
2022/08/25 03:31:48;;;;;;;;;;;22.70;75.30;;;;;;5073461;28;19987;-63
2022/08/25 03:34:18;;;;;;;;;;;22.70;75.90;;;;;;5088581;28;19915;-64
2022/08/25 03:36:45;;;;;;;;;;;22.60;75.50;;;;;;5073054;28;19933;-64
2022/08/25 03:39:11;;;;;;;;;;;22.60;75.70;;;;;;5072764;28;19908;-63
2022/08/25 03:41:36;;;;;;;;;;;22.50;76.10;;;;;;5072874;28;20046;-63
2022/08/25 03:44:03;;;;;;;;;;;22.50;76.70;;;;;;5073220;28;20400;-63
2022/08/25 03:46:33;;;;;;;;;;;22.50;77.50;;;;;;5072933;28;19915;-63
2022/08/25 03:49:03;;;;;;;;;;;22.40;76.00;;;;;;5073317;28;20327;-62
2022/08/25 03:51:33;;;;;;;;;;;22.40;76.50;;;;;;5072332;28;20387;-64
2022/08/25 03:53:59;;;;;;;;;;;22.40;75.90;;;;;;5072860;28;19909;-63
2022/08/25 03:56:26;;;;;;;;;;;22.40;76.50;;;;;;5072891;28;19954;-63
2022/08/25 03:58:52;;;;;;;;;;;22.40;75.70;;;;;;5072914;28;19908;-63
2022/08/25 04:01:17;;;;;;;;;;;22.40;77.70;;;;;;5073126;28;20265;-64
2022/08/25 04:03:43;;;;;;;;;;;22.40;77.90;;;;;;5054878;28;20426;-63
2022/08/25 04:06:08;;;;;;;;;;;22.40;77.60;;;;;;5072313;28;20011;-64
2022/08/25 04:08:35;;;;;;;;;;;22.40;77.00;;;;;;5072723;28;20380;-62
2022/08/25 04:11:08;;;;;;;;;;;22.40;77.30;;;;;;5072722;28;20365;-64
2022/08/25 04:13:33;;;;;;;;;;;22.40;77.00;;;;;;5072527;28;19916;-63
2022/08/25 04:15:59;;;;;;;;;;;22.40;76.30;;;;;;5072236;28;19909;-61
2022/08/25 04:18:24;;;;;;;;;;;22.40;77.00;;;;;;5072792;28;19908;-62
2022/08/25 04:20:50;;;;;;;;;;;22.40;76.60;;;;;;5071765;28;19970;-63
2022/08/25 04:23:15;;;;;;;;;;;22.30;76.80;;;;;;5072311;28;19909;-63
2022/08/25 04:25:41;;;;;;;;;;;22.30;76.40;;;;;;5072491;28;20015;-62
2022/08/25 04:28:08;;;;;;;;;;;22.30;77.40;;;;;;5072199;28;19908;-63
2022/08/25 04:30:34;;;;;;;;;;;22.30;77.60;;;;;;5072197;28;19916;-63
2022/08/25 04:32:59;;;;;;;;;;;22.30;77.30;;;;;;5072239;28;19909;-62
2022/08/25 04:35:25;;;;;;;;;;;22.20;77.50;;;;;;5071762;28;19962;-63
2022/08/25 04:37:50;;;;;;;;;;;22.20;77.10;;;;;;5072002;28;19908;-62
2022/08/25 04:40:16;;;;;;;;;;;22.20;77.60;;;;;;5071631;28;19928;-63
2022/08/25 04:42:43;;;;;;;;;;;22.20;77.70;;;;;;5071872;28;19908;-62
2022/08/25 04:45:09;;;;;;;;;;;22.20;76.90;;;;;;5071215;28;19936;-63
2022/08/25 04:47:36;;;;;;;;;;;22.20;77.20;;;;;;5071990;28;19932;-63
2022/08/25 04:50:02;;;;;;;;;;;22.20;76.90;;;;;;5070912;28;19912;-63
2022/08/25 04:52:28;;;;;;;;;;;22.10;76.60;;;;;;5071774;28;19908;-62
2022/08/25 04:54:54;;;;;;;;;;;22.10;77.30;;;;;;5071542;28;19918;-61
2022/08/25 04:57:19;;;;;;;;;;;22.10;76.80;;;;;;5071815;28;19916;-64
2022/08/25 04:59:45;;;;;;;;;;;22.10;77.30;;;;;;5071406;28;19912;-64
2022/08/25 05:02:10;;;;;;;;;;;22.10;77.80;;;;;;5071318;28;19972;-64
2022/08/25 05:04:36;;;;;;;;;;;22.10;76.80;;;;;;5071737;28;19915;-64
2022/08/25 05:07:02;;;;;;;;;;;22.10;76.90;;;;;;5071549;28;20410;-64
2022/08/25 05:09:27;;;;;;;;;;;22.10;77.00;;;;;;5071493;28;19912;-64
2022/08/25 05:11:53;;;;;;;;;;;22.10;76.90;;;;;;5071803;28;19913;-65
2022/08/25 05:14:21;;;;;;;;;;;22.10;76.40;;;;;;5071286;28;20010;-64
2022/08/25 05:16:47;;;;;;;;;;;22.10;77.00;;;;;;5071666;28;19916;-64
2022/08/25 05:19:13;;;;;;;;;;;22.10;77.20;;;;;;5070652;28;20380;-61
2022/08/25 05:21:38;;;;;;;;;;;22.10;77.70;;;;;;5071311;28;19916;-64
2022/08/25 05:24:04;;;;;;;;;;;22.10;77.40;;;;;;5071716;28;19908;-63
2022/08/25 05:26:30;;;;;;;;;;;22.00;78.10;;;;;;5071103;28;19962;-63
2022/08/25 05:28:57;;;;;;;;;;;22.00;78.00;;;;;;5071248;28;19915;-64
2022/08/25 05:31:25;;;;;;;;;;;22.00;78.10;;;;;;5071620;28;19998;-65
2022/08/25 05:33:51;;;;;;;;;;;22.00;79.00;;;;;;5070723;28;19938;-63
2022/08/25 05:36:17;;;;;;;;;;;21.90;77.70;;;;;;5071025;28;20004;-61
2022/08/25 05:38:42;;;;;;;;;;;22.00;78.10;;;;;;5071482;28;19908;-64
2022/08/25 05:41:10;;;;;;;;;;;21.90;77.90;;;;;;5070655;28;19920;-64
2022/08/25 05:43:39;;;;;;;;;;;21.90;77.70;;;;;;5071151;28;19999;-64
2022/08/25 05:46:05;;;;;;;;;;;22.00;78.20;;;;;;5051757;28;20373;-64
2022/08/25 05:48:31;;;;;;;;;;;21.90;78.40;;;;;;5070919;28;19908;-64
2022/08/25 05:50:57;;;;;;;;;;;21.90;78.70;;;;;;5070883;28;20372;-65
2022/08/25 05:53:23;;;;;;;;;;;22.00;78.00;;;;;;5053084;28;20324;-63
2022/08/25 05:55:50;;;;;;;;;;;22.00;78.00;;;;;;5071103;28;19909;-64
2022/08/25 05:58:16;;;;;;;;;;;22.10;78.80;;;;;;5074738;28;20464;-65
2022/08/25 06:00:41;;;;;;;;;;;22.10;78.30;;;;;;5075540;28;19916;-65
2022/08/25 06:03:07;;;;;;;;;;;22.10;78.90;;;;;;5074272;28;19908;-64
2022/08/25 06:05:32;;;;;;;;;;;22.10;77.90;;;;;;5074837;28;19961;-65
2022/08/25 06:07:58;;;;;;;;;;;22.20;77.60;;;;;;5075005;28;19940;-64
2022/08/25 06:10:24;;;;;;;;;;;22.20;77.80;;;;;;5075021;28;20377;-64
2022/08/25 06:12:50;;;;;;;;;;;22.20;77.40;;;;;;5073980;28;19912;-62
2022/08/25 06:15:17;;;;;;;;;;;22.30;77.90;;;;;;5074647;28;19912;-64
2022/08/25 06:17:43;;;;;;;;;;;22.30;78.10;;;;;;5074620;28;19909;-62
2022/08/25 06:20:11;;;;;;;;;;;22.40;77.80;;;;;;5074296;28;20380;-63
2022/08/25 06:22:37;;;;;;;;;;;22.40;77.40;;;;;;5073709;28;20792;-64
2022/08/25 06:25:03;;;;;;;;;;;22.40;77.80;;;;;;5073587;28;19912;-62
2022/08/25 06:27:29;;;;;;;;;;;22.50;78.00;;;;;;5072154;28;19960;-63
2022/08/25 06:29:54;;;;;;;;;;;22.50;78.30;;;;;;5056413;28;19952;-64
2022/08/25 06:32:20;;;;;;;;;;;22.60;78.10;;;;;;5072885;28;19913;-62
2022/08/25 06:34:45;;;;;;;;;;;22.60;78.10;;;;;;5073971;28;20335;-62
2022/08/25 06:37:11;;;;;;;;;;;22.60;77.70;;;;;;5056719;28;19909;-64
2022/08/25 06:39:36;;;;;;;;;;;22.70;79.00;;;;;;5074065;28;19909;-64
2022/08/25 06:42:02;;;;;;;;;;;22.70;78.30;;;;;;5073932;28;20434;-64
2022/08/25 06:44:28;;;;;;;;;;;22.80;78.00;;;;;;5073716;28;19908;-63
2022/08/25 06:46:53;;;;;;;;;;;22.80;77.80;;;;;;5065912;28;20083;-62
2022/08/25 06:49:19;;;;;;;;;;;22.80;77.50;;;;;;5072303;28;20410;-63
2022/08/25 06:51:45;;;;;;;;;;;22.90;77.50;;;;;;5072439;28;19908;-61
2022/08/25 06:54:10;;;;;;;;;;;22.90;77.30;;;;;;5072851;28;19962;-63
2022/08/25 06:56:36;;;;;;;;;;;23.00;77.70;;;;;;5072623;28;19909;-60
2022/08/25 06:59:02;;;;;;;;;;;23.00;77.20;;;;;;5073060;28;19940;-61
2022/08/25 07:01:28;;;;;;;;;;;23.00;77.10;;;;;;5071855;28;19969;-62
2022/08/25 07:03:56;;;;;;;;;;;23.00;77.10;;;;;;5073191;28;20874;-61
2022/08/25 07:06:22;;;;;;;;;;;23.10;76.70;;;;;;5071839;28;19939;-63
2022/08/25 07:08:47;;;;;;;;;;;23.10;76.90;;;;;;5071552;28;20107;-63
2022/08/25 07:11:13;;;;;;;;;;;23.20;76.70;;;;;;5072150;28;19915;-62
2022/08/25 07:13:39;;;;;;;;;;;23.20;76.30;;;;;;5071952;28;19978;-61
2022/08/25 07:16:05;;;;;;;;;;;23.30;76.30;;;;;;5072392;28;19913;-63
2022/08/25 07:18:31;;;;;;;;;;;23.30;76.40;;;;;;5072104;28;20014;-62
2022/08/25 07:20:57;;;;;;;;;;;23.30;76.40;;;;;;5072455;28;20081;-63
2022/08/25 07:23:23;;;;;;;;;;;23.40;76.00;;;;;;5072570;28;20361;-62
2022/08/25 07:25:49;;;;;;;;;;;23.40;76.30;;;;;;5071643;28;19978;-62
2022/08/25 07:28:15;;;;;;;;;;;23.40;76.10;;;;;;5071591;28;20435;-63
2022/08/25 07:30:41;;;;;;;;;;;23.50;76.00;;;;;;5071900;28;19919;-61
2022/08/25 07:33:07;;;;;;;;;;;23.50;76.10;;;;;;5072346;28;19913;-63
2022/08/25 07:35:33;;;;;;;;;;;23.60;75.90;;;;;;5071671;28;19908;-62
2022/08/25 07:37:59;;;;;;;;;;;23.60;75.90;;;;;;5071889;28;19913;-62
2022/08/25 07:40:35;;;;;;;;;;;23.60;75.80;;;;;;5071539;28;19929;-62
2022/08/25 07:43:03;;;;;;;;;;;23.70;75.80;;;;;;5065005;28;19908;-61
2022/08/25 07:45:30;;;;;;;;;;;23.80;75.80;;;;;;5066704;28;20016;-64
2022/08/25 07:47:59;;;;;;;;;;;23.80;75.50;;;;;;5065753;28;19946;-63
2022/08/25 07:50:25;;;;;;;;;;;23.80;75.60;;;;;;5065605;28;19909;-63
2022/08/25 07:52:51;;;;;;;;;;;23.90;75.20;;;;;;5071720;28;19908;-61
2022/08/25 07:55:17;;;;;;;;;;;24.00;75.30;;;;;;5071620;28;20399;-62
2022/08/25 07:57:42;;;;;;;;;;;24.00;75.20;;;;;;5071130;28;19908;-63
2022/08/25 08:00:09;;;;;;;;;;;24.00;75.40;;;;;;5071232;28;20268;-62
2022/08/25 08:02:38;;;;;;;;;;;24.10;75.30;;;;;;5071021;28;19919;-62
2022/08/25 08:05:04;;;;;;;;;;;24.10;74.90;;;;;;5052071;28;19912;-61
2022/08/25 08:07:30;;;;;;;;;;;24.20;75.40;;;;;;5070599;28;20340;-61
2022/08/25 08:09:57;;;;;;;;;;;24.30;74.70;;;;;;5070104;28;19912;-61
2022/08/25 08:12:23;;;;;;;;;;;24.30;74.80;;;;;;5070218;28;19965;-62
2022/08/25 08:14:48;;;;;;;;;;;24.30;74.20;;;;;;5070844;28;19909;-62
2022/08/25 08:17:15;;;;;;;;;;;24.50;74.80;;;;;;5071161;28;19919;-62
2022/08/25 08:19:40;;;;;;;;;;;24.50;74.50;;;;;;5070396;28;19908;-61
2022/08/25 08:22:06;;;;;;;;;;;24.50;74.10;;;;;;5070532;28;19974;-61
2022/08/25 08:24:39;;;;;;;;;;;24.50;73.60;;;;;;5071225;28;19908;-63
2022/08/25 08:27:06;;;;;;;;;;;24.60;73.20;;;;;;5070719;28;19916;-62
2022/08/25 08:29:32;;;;;;;;;;;24.60;72.10;;;;;;5071100;28;19909;-63
2022/08/25 08:31:58;;;;;;;;;;;24.80;73.40;;;;;;5070505;28;20341;-61
2022/08/25 08:34:23;;;;;;;;;;;24.90;73.00;;;;;;5070688;28;20082;-60
2022/08/25 08:36:49;;;;;;;;;;;24.90;73.30;;;;;;5070437;28;20014;-62
2022/08/25 08:39:14;;;;;;;;;;;25.00;73.20;;;;;;5070326;28;20074;-62
2022/08/25 08:44:46;;;;;;;;;;;25.20;72.50;;;;;;5089650;28;19914;-63
2022/08/25 08:47:30;;;;;;;;;;;25.30;72.90;;;;;;5090580;28;19916;-61
2022/08/25 08:52:34;;;;;;;;;;;25.40;70.90;;;;;;5719042;23;20516;-59
2022/08/25 08:55:01;;;;;;;;;;;25.40;71.90;;;;;;5030645;28;19939;-62
2022/08/25 08:57:27;;;;;;;;;;;25.50;72.20;;;;;;5042200;28;19936;-61
2022/08/25 09:00:04;;;;;;;;;;;25.60;72.50;;;;;;5047981;28;19913;-60
2022/08/25 09:02:35;;;;;;;;;;;25.60;72.00;;;;;;5048124;28;19917;-60
2022/08/25 09:05:05;;;;;;;;;;;25.70;70.20;;;;;;5047322;28;19919;-60
2022/08/25 09:07:38;;;;;;;;;;;25.70;69.30;;;;;;5043783;28;19913;-58
2022/08/25 09:10:03;;;;;;;;;;;25.80;70.40;;;;;;5046829;28;20332;-60
2022/08/25 09:12:48;;;;;;;;;;;25.80;70.30;;;;;;5045918;28;19915;-59
2022/08/25 09:15:19;;;;;;;;;;;25.80;69.40;;;;;;5049699;28;20372;-58
2022/08/25 09:17:45;;;;;;;;;;;25.80;69.60;;;;;;5048622;28;20007;-60
2022/08/25 09:20:16;;;;;;;;;;;25.80;70.40;;;;;;5049125;28;19924;-60
2022/08/25 09:22:48;;;;;;;;;;;25.80;69.70;;;;;;5049183;28;19945;-59
2022/08/25 09:25:30;;;;;;;;;;;25.90;70.70;;;;;;5047964;28;19909;-60
2022/08/25 09:28:07;;;;;;;;;;;25.90;71.10;;;;;;5047885;28;19913;-59
2022/08/25 09:30:41;;;;;;;;;;;25.90;70.50;;;;;;5044057;28;19975;-60
2022/08/25 09:33:08;;;;;;;;;;;26.00;70.80;;;;;;5049560;28;19935;-59
2022/08/25 09:35:35;;;;;;;;;;;26.00;71.00;;;;;;5049182;28;19909;-58
2022/08/25 09:38:02;;;;;;;;;;;26.00;70.90;;;;;;5049533;28;20384;-59
2022/08/25 09:40:30;;;;;;;;;;;26.00;71.40;;;;;;5049469;28;20314;-59
2022/08/25 09:43:00;;;;;;;;;;;26.00;71.70;;;;;;5048765;28;20393;-59
2022/08/25 09:45:35;;;;;;;;;;;26.10;71.50;;;;;;5049116;28;19917;-60
2022/08/25 09:48:01;;;;;;;;;;;26.10;71.70;;;;;;5049841;28;20244;-59
2022/08/25 09:50:29;;;;;;;;;;;26.20;70.90;;;;;;5049296;28;19948;-58
2022/08/25 09:53:09;;;;;;;;;;;26.10;70.40;;;;;;5048723;28;19921;-59
2022/08/25 09:55:35;;;;;;;;;;;26.10;70.40;;;;;;5049096;28;19912;-59
2022/08/25 09:58:11;;;;;;;;;;;26.10;70.20;;;;;;5049225;28;20384;-59
2022/08/25 10:00:37;;;;;;;;;;;26.10;70.00;;;;;;5049466;28;19913;-59
2022/08/25 10:03:19;;;;;;;;;;;26.10;70.10;;;;;;5049037;28;19916;-59
2022/08/25 10:05:44;;;;;;;;;;;26.10;69.30;;;;;;5049252;28;20380;-58
2022/08/25 10:08:12;;;;;;;;;;;26.10;69.80;;;;;;5048595;28;19959;-58
2022/08/25 10:10:41;;;;;;;;;;;26.10;69.40;;;;;;5048916;28;20029;-59
2022/08/25 10:13:16;;;;;;;;;;;26.10;69.40;;;;;;5049728;28;19913;-58
2022/08/25 10:15:42;;;;;;;;;;;26.20;69.30;;;;;;5049168;28;20010;-58
2022/08/25 10:18:23;;;;;;;;;;;26.20;69.40;;;;;;5048860;28;19948;-58
2022/08/25 10:21:08;;;;;;;;;;;26.30;68.60;;;;;;5049614;28;19925;-58
2022/08/25 10:23:35;;;;;;;;;;;26.30;69.40;;;;;;5048001;28;19959;-59
2022/08/25 10:26:07;;;;;;;;;;;26.30;68.80;;;;;;5048682;28;19909;-58
2022/08/25 10:28:43;;;;;;;;;;;26.40;69.30;;;;;;5049130;28;19915;-59
2022/08/25 10:31:35;;;;;;;;;;;26.50;70.00;;;;;;5048721;28;19920;-59
2022/08/25 10:34:19;;;;;;;;;;;26.50;70.10;;;;;;5045333;28;19909;-59
2022/08/25 10:37:03;;;;;;;;;;;26.60;69.00;;;;;;5047691;28;19916;-59
2022/08/25 10:39:29;;;;;;;;;;;26.70;68.20;;;;;;5047559;28;19919;-59
2022/08/25 10:42:13;;;;;;;;;;;26.70;67.90;;;;;;5048425;28;20276;-59
2022/08/25 10:47:29;;;;;;;;;;;26.80;67.00;;;;;;5052286;28;20382;-59
2022/08/25 10:50:03;;;;;;;;;;;26.80;66.70;;;;;;5053130;28;19909;-58
2022/08/25 10:52:52;;;;;;;;;;;26.80;65.70;;;;;;5051403;28;19921;-59
2022/08/25 10:55:22;;;;;;;;;;;26.90;66.00;;;;;;5037158;28;19967;-58
2022/08/25 10:58:03;;;;;;;;;;;26.90;67.00;;;;;;5052614;28;19913;-60
2022/08/25 11:00:37;;;;;;;;;;;27.00;66.50;;;;;;5052240;28;19916;-58
2022/08/25 11:03:05;;;;;;;;;;;27.10;66.50;;;;;;5052471;28;20007;-58
2022/08/25 11:05:53;;;;;;;;;;;27.10;67.10;;;;;;5051913;28;19944;-58
2022/08/25 11:08:31;;;;;;;;;;;27.10;66.80;;;;;;5052324;28;19917;-58
2022/08/25 11:11:25;;;;;;;;;;;27.30;66.60;;;;;;5051968;28;20430;-59
2022/08/25 11:14:03;;;;;;;;;;;27.40;64.90;;;;;;4971526;28;20006;-59
2022/08/25 11:16:37;;;;;;;;;;;27.50;66.20;;;;;;4970814;28;19946;-59
2022/08/25 11:19:06;;;;;;;;;;;27.50;66.60;;;;;;4970839;28;19910;-58
2022/08/25 11:21:40;;;;;;;;;;;27.50;66.30;;;;;;4969876;28;19965;-58
2022/08/25 11:24:25;;;;;;;;;;;27.50;66.20;;;;;;4970669;28;20379;-59
2022/08/25 11:26:54;;;;;;;;;;;27.60;65.00;;;;;;4970414;28;19961;-60
2022/08/25 11:29:20;;;;;;;;;;;27.60;65.20;;;;;;4970805;28;19918;-58
2022/08/25 11:31:48;;;;;;;;;;;27.60;65.00;;;;;;4969706;28;19914;-58
2022/08/25 11:34:14;;;;;;;;;;;27.60;64.70;;;;;;4970405;28;19949;-59
2022/08/25 11:36:42;;;;;;;;;;;27.70;64.60;;;;;;4968610;28;19922;-60
2022/08/25 11:39:25;;;;;;;;;;;27.70;63.80;;;;;;4970688;28;19914;-59
2022/08/25 11:42:11;;;;;;;;;;;27.80;63.90;;;;;;4963583;28;19922;-58
2022/08/25 11:44:51;;;;;;;;;;;27.80;62.80;;;;;;4969374;28;19965;-58
2022/08/25 11:47:23;;;;;;;;;;;27.80;62.50;;;;;;4970383;28;19910;-59
2022/08/25 11:49:56;;;;;;;;;;;28.00;63.10;;;;;;4994305;28;19908;-60
2022/08/25 11:52:31;;;;;;;;;;;28.00;61.20;;;;;;5051000;28;19924;-59
2022/08/25 11:55:15;;;;;;;;;;;28.10;61.90;;;;;;5051299;28;19963;-59
2022/08/25 11:57:41;;;;;;;;;;;28.20;61.50;;;;;;5046709;28;19909;-59
2022/08/25 12:00:09;;;;;;;;;;;28.20;61.90;;;;;;5050875;28;20360;-59
2022/08/25 12:02:49;;;;;;;;;;;28.20;62.40;;;;;;5033125;28;19917;-58
2022/08/25 12:05:21;;;;;;;;;;;28.30;61.90;;;;;;5050945;28;19909;-59
2022/08/25 12:07:47;;;;;;;;;;;28.40;61.50;;;;;;5051416;28;20003;-59
2022/08/25 12:10:19;;;;;;;;;;;28.60;61.70;;;;;;5051428;28;20351;-59
2022/08/25 12:12:45;;;;;;;;;;;28.60;61.40;;;;;;5050438;28;19970;-58
2022/08/25 12:15:13;;;;;;;;;;;28.80;62.20;;;;;;5051114;28;19916;-58
2022/08/25 12:17:39;;;;;;;;;;;28.80;61.70;;;;;;5050790;28;19912;-59
2022/08/25 12:20:05;;;;;;;;;;;28.80;61.10;;;;;;5050186;28;19967;-58
2022/08/25 12:22:31;;;;;;;;;;;28.90;60.90;;;;;;5050699;28;20023;-59
2022/08/25 12:25:05;;;;;;;;;;;28.90;59.60;;;;;;5050977;28;20695;-59
2022/08/25 12:27:41;;;;;;;;;;;28.90;61.50;;;;;;5051352;28;19966;-58
2022/08/25 12:30:09;;;;;;;;;;;28.90;61.20;;;;;;5050759;28;20377;-59
2022/08/25 12:32:35;;;;;;;;;;;29.10;61.40;;;;;;5050413;28;19908;-59
2022/08/25 12:35:06;;;;;;;;;;;29.20;60.90;;;;;;5050491;28;20007;-59
2022/08/25 12:37:32;;;;;;;;;;;29.20;61.40;;;;;;5050979;28;19948;-58
2022/08/25 12:40:02;;;;;;;;;;;29.40;59.30;;;;;;5050710;28;20348;-58
2022/08/25 12:42:28;;;;;;;;;;;29.40;61.10;;;;;;5049974;28;20472;-58
2022/08/25 12:45:13;;;;;;;;;;;29.50;60.70;;;;;;5051270;28;19995;-59
2022/08/25 12:47:38;;;;;;;;;;;29.50;60.70;;;;;;5049860;28;19999;-60
2022/08/25 12:50:22;;;;;;;;;;;29.60;61.70;;;;;;5050425;28;19996;-57
2022/08/25 12:52:48;;;;;;;;;;;29.70;62.00;;;;;;5045805;28;19924;-59
2022/08/25 12:55:14;;;;;;;;;;;29.80;61.60;;;;;;5049984;28;19913;-58
2022/08/25 12:58:09;;;;;;;;;;;29.80;61.80;;;;;;5032188;28;20031;-59
2022/08/25 13:00:46;;;;;;;;;;;29.90;62.20;;;;;;5036704;28;19917;-59
2022/08/25 13:03:20;;;;;;;;;;;30.00;62.10;;;;;;5050014;28;20110;-58
2022/08/25 13:05:48;;;;;;;;;;;30.00;62.10;;;;;;5044165;28;19909;-59
2022/08/25 13:08:26;;;;;;;;;;;29.90;62.10;;;;;;5049732;28;19913;-58
2022/08/25 13:10:57;;;;;;;;;;;29.90;62.40;;;;;;5050197;28;20000;-58
2022/08/25 13:13:42;;;;;;;;;;;29.90;61.80;;;;;;5049927;28;19915;-58
2022/08/25 13:16:14;;;;;;;;;;;29.90;61.90;;;;;;4968105;28;19918;-59
2022/08/25 13:18:40;;;;;;;;;;;29.80;61.70;;;;;;4968944;28;20353;-60
2022/08/25 13:21:18;;;;;;;;;;;29.90;61.60;;;;;;4967668;28;20521;-58
2022/08/25 13:23:51;;;;;;;;;;;29.90;61.80;;;;;;4968320;28;20645;-58
2022/08/25 13:26:22;;;;;;;;;;;30.10;61.80;;;;;;4966781;28;20394;-59
2022/08/25 13:28:59;;;;;;;;;;;30.20;61.60;;;;;;4967941;28;19917;-59
2022/08/25 13:31:27;;;;;;;;;;;30.20;62.10;;;;;;4966972;28;19930;-60
2022/08/25 13:33:57;;;;;;;;;;;30.20;61.80;;;;;;4968111;28;19911;-57
2022/08/25 13:39:10;;;;;;;;;;;30.20;61.90;;;;;;4968100;28;19934;-59
2022/08/25 13:41:36;;;;;;;;;;;30.10;62.30;;;;;;4968374;28;19926;-58
2022/08/25 13:44:01;;;;;;;;;;;30.20;62.20;;;;;;4968597;28;20051;-59
2022/08/25 13:46:27;;;;;;;;;;;30.20;62.10;;;;;;4967683;28;20496;-57
2022/08/25 13:49:01;;;;;;;;;;;30.20;62.20;;;;;;4968675;28;19958;-58
2022/08/25 13:51:27;;;;;;;;;;;30.30;61.90;;;;;;4967993;28;19914;-58
2022/08/25 13:53:53;;;;;;;;;;;30.30;62.00;;;;;;5030274;28;19921;-58
2022/08/25 13:56:26;;;;;;;;;;;30.40;61.70;;;;;;5048932;28;19909;-58
2022/08/25 13:58:52;;;;;;;;;;;30.40;61.60;;;;;;5049396;28;19913;-58
2022/08/25 14:01:23;;;;;;;;;;;30.30;61.60;;;;;;5048413;28;19923;-57
2022/08/25 14:03:49;;;;;;;;;;;30.30;61.80;;;;;;5049051;28;20469;-58
2022/08/25 14:06:14;;;;;;;;;;;30.20;61.70;;;;;;5049170;28;19908;-58
2022/08/25 14:08:44;;;;;;;;;;;30.30;61.80;;;;;;5048970;28;20384;-58
2022/08/25 14:11:12;;;;;;;;;;;30.30;62.70;;;;;;5049567;28;20688;-57
2022/08/25 14:13:38;;;;;;;;;;;30.30;62.30;;;;;;5049322;28;19909;-58
2022/08/25 14:16:22;;;;;;;;;;;30.40;62.10;;;;;;5048319;28;19916;-58
2022/08/25 14:18:50;;;;;;;;;;;30.40;62.40;;;;;;5045810;28;19915;-58
2022/08/25 14:21:17;;;;;;;;;;;30.50;62.90;;;;;;5053364;28;19939;-57
2022/08/25 14:23:42;;;;;;;;;;;30.60;61.60;;;;;;5053180;28;19974;-58
2022/08/25 14:26:08;;;;;;;;;;;30.60;60.90;;;;;;5053172;28;20389;-57
2022/08/25 14:28:34;;;;;;;;;;;30.50;62.30;;;;;;5052453;28;19913;-58
2022/08/25 14:31:11;;;;;;;;;;;30.40;62.50;;;;;;5052863;28;19966;-56
2022/08/25 14:33:38;;;;;;;;;;;30.30;62.60;;;;;;5052958;28;19920;-58
2022/08/25 14:36:05;;;;;;;;;;;30.30;63.10;;;;;;5052931;28;19908;-58